Time;durP1;ratioP1;P1;durP2;ratioP2;P2;SDS_P1;SDS_P2;PMS_P1;PMS_P2;Temp;Humidity;BMP_temperature;BMP_pressure;BME280_temperature;BME280_humidity;BME280_pressure;Samples;Min_cycle;Max_cycle;Signal;HPM_P1;HPM_P2
2022/09/25 00:01:27;;;;;;;44.47;41.47;;;14.00;99.90;;;;;;4972460;28;20963;-72
2022/09/25 00:03:55;;;;;;;46.30;42.70;;;13.90;99.90;;;;;;4972845;28;21168;-72
2022/09/25 00:06:24;;;;;;;44.77;41.30;;;13.90;99.90;;;;;;4972744;28;20525;-72
2022/09/25 00:08:52;;;;;;;44.23;40.83;;;13.90;99.90;;;;;;4972895;28;20746;-72
2022/09/25 00:11:21;;;;;;;42.60;39.43;;;13.90;99.90;;;;;;4972940;28;20458;-72
2022/09/25 00:13:48;;;;;;;42.13;39.00;;;13.90;99.90;;;;;;4973026;28;20459;-73
2022/09/25 00:16:17;;;;;;;42.53;39.20;;;13.90;99.90;;;;;;4972865;28;20526;-73
2022/09/25 00:21:31;;;;;;;45.60;42.10;;;13.90;99.90;;;;;;4972768;28;20512;-72
2022/09/25 00:23:59;;;;;;;45.87;42.30;;;13.80;99.90;;;;;;4972518;28;20930;-72
2022/09/25 00:26:27;;;;;;;46.60;43.00;;;13.90;99.90;;;;;;4972536;28;20917;-74
2022/09/25 00:28:54;;;;;;;43.33;40.13;;;13.90;99.90;;;;;;4972528;28;20530;-75
2022/09/25 00:31:23;;;;;;;43.57;40.27;;;13.90;99.90;;;;;;4972514;28;20452;-74
2022/09/25 00:33:50;;;;;;;40.17;37.17;;;14.00;99.90;;;;;;4972546;28;20455;-74
2022/09/25 00:36:17;;;;;;;42.70;39.67;;;14.00;99.90;;;;;;4972768;28;20459;-74
2022/09/25 00:38:47;;;;;;;40.60;37.50;;;13.90;99.90;;;;;;4972103;28;20502;-74
2022/09/25 00:41:17;;;;;;;42.37;39.17;;;13.90;99.90;;;;;;4972272;28;20530;-72
2022/09/25 00:43:45;;;;;;;42.03;38.93;;;14.00;99.90;;;;;;4972041;28;20447;-73
2022/09/25 00:46:14;;;;;;;41.87;38.87;;;13.90;99.90;;;;;;4971943;28;21021;-72
2022/09/25 00:48:48;;;;;;;42.17;38.90;;;13.90;99.90;;;;;;4971805;28;20496;-72
2022/09/25 00:51:18;;;;;;;41.60;38.53;;;13.80;99.90;;;;;;4972283;28;20452;-72
2022/09/25 00:53:46;;;;;;;40.87;37.77;;;13.80;99.90;;;;;;4972074;28;20452;-72
2022/09/25 00:56:13;;;;;;;41.57;38.27;;;13.80;99.90;;;;;;4971955;28;20459;-72
2022/09/25 00:58:41;;;;;;;41.00;38.00;;;13.90;99.90;;;;;;4971780;28;20961;-73
2022/09/25 01:01:09;;;;;;;43.33;40.10;;;13.90;99.90;;;;;;4971620;28;20514;-71
2022/09/25 01:03:37;;;;;;;41.77;38.50;;;13.90;99.90;;;;;;4971663;28;20502;-71
2022/09/25 01:06:04;;;;;;;41.77;38.67;;;14.00;99.90;;;;;;4971825;28;20518;-72
2022/09/25 01:08:31;;;;;;;43.57;40.37;;;14.00;99.90;;;;;;4971624;28;20494;-72
2022/09/25 01:10:59;;;;;;;40.83;37.83;;;13.80;99.90;;;;;;4971671;28;20606;-72
2022/09/25 01:13:28;;;;;;;41.10;38.13;;;13.80;99.90;;;;;;4971554;28;20824;-73
2022/09/25 01:16:02;;;;;;;42.77;39.60;;;13.70;99.90;;;;;;4971612;28;20483;-73
2022/09/25 01:18:46;;;;;;;40.60;37.50;;;13.70;99.90;;;;;;4971672;28;20451;-72
2022/09/25 01:21:21;;;;;;;39.73;36.67;;;13.70;99.90;;;;;;4971732;28;20793;-74
2022/09/25 01:24:04;;;;;;;42.17;38.87;;;13.80;99.90;;;;;;4971498;28;20451;-73
2022/09/25 01:26:54;;;;;;;41.17;37.93;;;13.70;99.90;;;;;;4971548;28;20452;-72
2022/09/25 01:29:27;;;;;;;40.13;37.07;;;13.70;99.90;;;;;;4971288;28;20467;-72
2022/09/25 01:32:02;;;;;;;41.47;38.50;;;13.80;99.90;;;;;;4971240;28;20471;-72
2022/09/25 01:34:36;;;;;;;43.13;39.63;;;13.70;99.90;;;;;;4971087;28;20549;-72
2022/09/25 01:37:10;;;;;;;40.83;37.73;;;13.60;99.90;;;;;;4971321;28;20488;-72
2022/09/25 01:39:45;;;;;;;39.50;36.50;;;13.60;99.90;;;;;;4970974;28;20515;-72
2022/09/25 01:42:15;;;;;;;41.77;38.47;;;13.60;99.90;;;;;;4971204;28;20455;-72
2022/09/25 01:44:49;;;;;;;40.27;37.17;;;13.60;99.90;;;;;;4971157;28;20467;-72
2022/09/25 01:47:21;;;;;;;40.93;37.60;;;13.60;99.90;;;;;;4971611;28;21232;-72
2022/09/25 01:49:50;;;;;;;41.93;38.60;;;13.60;99.90;;;;;;4971459;28;20452;-72
2022/09/25 01:52:22;;;;;;;42.70;39.20;;;13.60;99.90;;;;;;4971340;28;20456;-74
2022/09/25 01:54:51;;;;;;;41.43;38.13;;;13.60;99.90;;;;;;4971043;28;20451;-72
2022/09/25 01:57:23;;;;;;;42.03;38.53;;;13.50;99.90;;;;;;4970905;28;20562;-72
2022/09/25 01:59:56;;;;;;;44.50;40.70;;;13.40;99.90;;;;;;4971019;28;20772;-72
2022/09/25 02:02:28;;;;;;;41.77;38.27;;;13.30;99.90;;;;;;4970735;28;20973;-74
2022/09/25 02:04:59;;;;;;;42.63;39.17;;;13.30;99.90;;;;;;4970722;28;21156;-74
2022/09/25 02:07:30;;;;;;;43.50;39.40;;;13.30;99.90;;;;;;4970649;28;20578;-74
2022/09/25 02:10:02;;;;;;;42.70;38.60;;;13.20;99.90;;;;;;4970342;28;20455;-75
2022/09/25 02:12:34;;;;;;;45.60;41.27;;;13.20;99.90;;;;;;4970936;28;20455;-73
2022/09/25 02:15:08;;;;;;;44.07;40.27;;;13.20;99.90;;;;;;4970990;28;20555;-73
2022/09/25 02:20:35;;;;;;;43.63;39.67;;;13.10;99.90;;;;;;4970719;28;20844;-73
2022/09/25 02:23:08;;;;;;;43.33;39.30;;;13.20;99.90;;;;;;4970968;28;20456;-74
2022/09/25 02:25:40;;;;;;;42.97;39.07;;;13.30;99.90;;;;;;4970647;28;20463;-75
2022/09/25 02:28:07;;;;;;;41.87;38.07;;;13.30;99.90;;;;;;4970481;28;20487;-75
2022/09/25 02:30:35;;;;;;;42.00;38.30;;;13.30;99.90;;;;;;4970609;28;20502;-75
2022/09/25 02:33:02;;;;;;;44.30;40.30;;;13.30;99.90;;;;;;4970702;28;20506;-74
2022/09/25 02:35:29;;;;;;;42.77;39.03;;;13.20;99.90;;;;;;4970371;28;20448;-75
2022/09/25 02:37:56;;;;;;;42.30;38.70;;;13.20;99.90;;;;;;4970178;28;20471;-75
2022/09/25 02:40:33;;;;;;;42.30;38.40;;;13.20;99.90;;;;;;4970110;28;20922;-75
2022/09/25 02:43:10;;;;;;;41.93;37.77;;;13.10;99.90;;;;;;4970478;28;20869;-75
2022/09/25 02:45:48;;;;;;;42.77;38.90;;;13.10;99.90;;;;;;4970084;28;20470;-76
2022/09/25 02:48:22;;;;;;;40.30;36.30;;;13.10;99.90;;;;;;4964686;28;20495;-75
2022/09/25 02:50:57;;;;;;;39.70;36.00;;;13.00;99.90;;;;;;4956834;28;20441;-76
2022/09/25 02:53:33;;;;;;;41.37;37.57;;;13.00;99.90;;;;;;4958391;28;20452;-74
2022/09/25 02:56:04;;;;;;;41.83;37.73;;;13.10;99.90;;;;;;4950824;28;21154;-75
2022/09/25 02:58:36;;;;;;;39.93;36.23;;;13.00;99.90;;;;;;4950859;28;20460;-77
2022/09/25 03:01:08;;;;;;;42.23;38.03;;;13.00;99.90;;;;;;4950971;28;20472;-76
2022/09/25 03:03:37;;;;;;;39.77;36.17;;;13.10;99.90;;;;;;4950762;28;20456;-76
2022/09/25 03:06:05;;;;;;;39.70;36.00;;;13.10;99.90;;;;;;4950869;28;20467;-76
2022/09/25 03:08:40;;;;;;;39.90;36.30;;;13.10;99.90;;;;;;4950848;28;20893;-77
2022/09/25 03:11:09;;;;;;;38.83;35.40;;;13.20;99.90;;;;;;4950578;28;20451;-77
2022/09/25 03:13:36;;;;;;;40.50;36.90;;;13.20;99.90;;;;;;4950587;28;20508;-76
2022/09/25 03:16:08;;;;;;;40.27;36.67;;;13.30;99.90;;;;;;4953616;28;20452;-75
2022/09/25 03:18:34;;;;;;;38.27;34.83;;;13.40;99.90;;;;;;4958664;28;20451;-76
2022/09/25 03:21:03;;;;;;;38.40;35.00;;;13.30;99.90;;;;;;4960727;28;20459;-76
2022/09/25 03:23:29;;;;;;;38.23;34.83;;;13.20;99.90;;;;;;4962432;28;20453;-75
2022/09/25 03:25:56;;;;;;;41.90;38.13;;;13.20;99.90;;;;;;4962029;28;20479;-75
2022/09/25 03:28:24;;;;;;;39.73;35.97;;;13.00;99.90;;;;;;4963380;28;20479;-75
2022/09/25 03:30:58;;;;;;;36.10;32.80;;;13.00;99.90;;;;;;4962411;28;20507;-76
2022/09/25 03:33:27;;;;;;;37.87;34.67;;;13.00;99.90;;;;;;4958956;28;20448;-75
2022/09/25 03:36:06;;;;;;;37.03;33.70;;;12.90;99.90;;;;;;4962108;28;20546;-74
2022/09/25 03:38:33;;;;;;;37.57;34.07;;;12.90;99.90;;;;;;4960943;28;20468;-76
2022/09/25 03:41:00;;;;;;;37.80;34.33;;;12.90;99.90;;;;;;4961328;28;20568;-75
2022/09/25 03:43:28;;;;;;;37.70;34.20;;;12.90;99.90;;;;;;4955731;28;21025;-74
2022/09/25 03:45:54;;;;;;;35.50;32.47;;;12.90;99.90;;;;;;4953790;28;20456;-75
2022/09/25 03:48:21;;;;;;;34.90;31.70;;;12.90;99.90;;;;;;4953623;28;20985;-74
2022/09/25 03:50:49;;;;;;;36.30;32.97;;;12.80;99.90;;;;;;4954191;28;20961;-74
2022/09/25 03:53:17;;;;;;;35.70;32.20;;;12.90;99.90;;;;;;4954332;28;20547;-74
2022/09/25 03:55:45;;;;;;;36.07;32.73;;;12.80;99.90;;;;;;4954093;28;20491;-75
2022/09/25 03:58:13;;;;;;;47.67;43.33;;;12.80;99.90;;;;;;4954085;28;20459;-73
2022/09/25 04:00:40;;;;;;;54.20;48.53;;;12.80;99.90;;;;;;4953654;28;20483;-73
2022/09/25 04:03:06;;;;;;;52.77;47.77;;;12.80;99.90;;;;;;4953441;28;21017;-74
2022/09/25 04:05:33;;;;;;;53.97;48.73;;;12.80;99.90;;;;;;4953914;28;20483;-75
2022/09/25 04:08:02;;;;;;;51.20;46.77;;;12.60;99.90;;;;;;4953856;28;20492;-76
2022/09/25 04:10:28;;;;;;;53.37;48.07;;;12.60;99.90;;;;;;4953663;28;20840;-75
2022/09/25 04:12:56;;;;;;;54.13;49.27;;;12.60;99.90;;;;;;4953480;28;20947;-76
2022/09/25 04:15:22;;;;;;;53.77;48.60;;;12.60;99.90;;;;;;4953495;28;20460;-76
2022/09/25 04:17:49;;;;;;;51.37;46.67;;;12.60;99.90;;;;;;4953571;28;20471;-75
2022/09/25 04:20:16;;;;;;;50.60;46.10;;;12.60;99.90;;;;;;4953681;28;20448;-76
2022/09/25 04:22:43;;;;;;;53.63;48.80;;;12.60;99.90;;;;;;4953581;28;20515;-76
2022/09/25 04:25:11;;;;;;;50.87;45.97;;;12.60;99.90;;;;;;4953436;28;20448;-75
2022/09/25 04:27:38;;;;;;;50.30;45.70;;;12.60;99.90;;;;;;4953430;28;20866;-76
2022/09/25 04:30:06;;;;;;;50.60;46.10;;;12.60;99.90;;;;;;4953488;28;20985;-76
2022/09/25 04:35:17;;;;;;;51.10;45.80;;;12.70;99.90;;;;;;4953375;29;20460;-76
2022/09/25 04:37:44;;;;;;;49.93;45.40;;;12.70;99.90;;;;;;4953152;28;20476;-76
2022/09/25 04:40:12;;;;;;;50.10;45.30;;;12.70;99.90;;;;;;4952820;28;20487;-75
2022/09/25 04:42:42;;;;;;;49.87;45.50;;;12.70;99.90;;;;;;4952939;28;20464;-75
2022/09/25 04:45:10;;;;;;;52.70;47.43;;;12.60;99.90;;;;;;4952771;28;20781;-74
2022/09/25 04:47:36;;;;;;;49.20;44.80;;;12.60;99.90;;;;;;4952705;28;20963;-75
2022/09/25 04:50:03;;;;;;;51.07;46.37;;;12.70;99.90;;;;;;4952918;28;20499;-74
2022/09/25 04:52:30;;;;;;;49.87;45.07;;;12.80;99.90;;;;;;4952809;28;20568;-75
2022/09/25 04:54:57;;;;;;;50.07;45.47;;;12.80;99.90;;;;;;4952684;28;20483;-74
2022/09/25 04:57:25;;;;;;;50.17;45.97;;;12.70;99.90;;;;;;4952464;28;20511;-74
2022/09/25 04:59:52;;;;;;;48.53;44.23;;;12.70;99.90;;;;;;4952422;28;20952;-75
2022/09/25 05:02:18;;;;;;;47.27;43.07;;;12.70;99.90;;;;;;4952808;28;20508;-75
2022/09/25 05:04:45;;;;;;;48.80;44.50;;;12.70;99.90;;;;;;4952692;28;20531;-75
2022/09/25 05:07:12;;;;;;;47.77;43.37;;;12.70;99.90;;;;;;4952517;28;20448;-75
2022/09/25 05:09:38;;;;;;;48.70;44.47;;;12.60;99.90;;;;;;4952367;28;20495;-75
2022/09/25 05:12:06;;;;;;;46.43;42.30;;;12.60;99.90;;;;;;4952342;28;20464;-74
2022/09/25 05:14:34;;;;;;;47.63;43.53;;;12.60;99.90;;;;;;4952551;28;20457;-74
2022/09/25 05:17:01;;;;;;;50.20;45.30;;;12.60;99.90;;;;;;4952246;28;20511;-74
2022/09/25 05:19:28;;;;;;;47.40;43.03;;;12.60;99.90;;;;;;4952046;28;21018;-75
2022/09/25 05:21:55;;;;;;;46.13;42.07;;;12.60;99.90;;;;;;4952107;28;20465;-74
2022/09/25 05:24:21;;;;;;;45.43;41.40;;;12.60;99.90;;;;;;4952181;28;20464;-75
2022/09/25 05:26:48;;;;;;;44.90;41.10;;;12.60;99.90;;;;;;4952472;28;20880;-76
2022/09/25 05:29:15;;;;;;;46.40;42.17;;;12.60;99.90;;;;;;4952151;28;20499;-75
2022/09/25 05:31:45;;;;;;;46.53;42.40;;;12.70;99.90;;;;;;4952075;28;20471;-75
2022/09/25 05:34:12;;;;;;;45.40;41.20;;;12.70;99.90;;;;;;4952061;28;20512;-75
2022/09/25 05:36:39;;;;;;;45.53;41.27;;;12.70;99.90;;;;;;4952308;28;20698;-75
2022/09/25 05:39:05;;;;;;;43.10;39.37;;;12.60;99.90;;;;;;4951885;28;20990;-75
2022/09/25 05:41:35;;;;;;;47.30;43.00;;;12.50;99.90;;;;;;4952294;28;20856;-75
2022/09/25 05:44:05;;;;;;;45.33;41.13;;;12.60;99.90;;;;;;4951240;28;20457;-75
2022/09/25 05:46:32;;;;;;;44.57;40.57;;;12.60;99.90;;;;;;4951812;28;20702;-75
2022/09/25 05:49:00;;;;;;;45.13;40.90;;;12.60;99.90;;;;;;4951571;28;21002;-75
2022/09/25 05:51:27;;;;;;;44.90;40.80;;;12.60;99.90;;;;;;4951646;28;20460;-75
2022/09/25 05:53:53;;;;;;;45.60;41.77;;;12.60;99.90;;;;;;4951611;28;20512;-75
2022/09/25 05:56:23;;;;;;;45.70;41.97;;;12.70;99.90;;;;;;4952147;28;20559;-75
2022/09/25 05:58:50;;;;;;;45.30;41.33;;;12.70;99.90;;;;;;4951648;28;20484;-75
2022/09/25 06:01:17;;;;;;;44.53;40.60;;;12.70;99.90;;;;;;4951896;28;20449;-74
2022/09/25 06:03:44;;;;;;;45.30;41.30;;;12.70;99.90;;;;;;4951696;28;20464;-75
2022/09/25 06:06:12;;;;;;;46.17;42.23;;;12.70;99.90;;;;;;4951489;28;20772;-76
2022/09/25 06:08:39;;;;;;;46.23;42.17;;;12.70;99.90;;;;;;4951438;28;20488;-75
2022/09/25 06:11:06;;;;;;;45.30;41.40;;;12.70;99.90;;;;;;4951784;28;20457;-76
2022/09/25 06:13:35;;;;;;;46.73;42.83;;;12.80;99.90;;;;;;4951897;28;20492;-76
2022/09/25 06:16:04;;;;;;;45.00;41.00;;;12.80;99.90;;;;;;4951672;28;20547;-75
2022/09/25 06:18:32;;;;;;;43.43;39.73;;;12.80;99.90;;;;;;4951256;28;20467;-76
2022/09/25 06:21:01;;;;;;;44.43;40.83;;;12.70;99.90;;;;;;4951167;28;20457;-76
2022/09/25 06:23:29;;;;;;;43.80;40.27;;;12.80;99.90;;;;;;4951046;28;20551;-76
2022/09/25 06:26:00;;;;;;;45.33;41.57;;;12.80;99.90;;;;;;4951170;28;20456;-75
2022/09/25 06:28:27;;;;;;;45.00;41.40;;;12.80;99.90;;;;;;4950968;28;20488;-76
2022/09/25 06:30:54;;;;;;;43.90;40.30;;;12.90;99.90;;;;;;4950977;28;20444;-76
2022/09/25 06:33:21;;;;;;;43.53;40.00;;;13.00;99.90;;;;;;4951105;28;20460;-77
2022/09/25 06:35:48;;;;;;;44.13;40.50;;;13.00;99.90;;;;;;4951240;28;20986;-76
2022/09/25 06:38:16;;;;;;;43.77;40.23;;;13.10;99.90;;;;;;4951018;28;20473;-76
2022/09/25 06:40:44;;;;;;;44.23;40.73;;;13.10;99.90;;;;;;4950798;28;20511;-76
2022/09/25 06:43:13;;;;;;;42.27;38.87;;;13.10;99.90;;;;;;4950851;28;20456;-76
2022/09/25 06:45:40;;;;;;;44.43;40.93;;;13.10;99.90;;;;;;4950880;28;20548;-76
2022/09/25 06:48:10;;;;;;;44.20;40.70;;;13.10;99.90;;;;;;4950745;28;20457;-76
2022/09/25 06:50:40;;;;;;;41.20;37.90;;;13.00;99.90;;;;;;4950453;28;20605;-75
2022/09/25 06:53:07;;;;;;;41.40;37.73;;;13.10;99.90;;;;;;4950749;28;20764;-75
2022/09/25 06:55:34;;;;;;;42.67;39.27;;;13.10;99.90;;;;;;4950865;28;20460;-75
2022/09/25 06:58:03;;;;;;;43.50;40.20;;;13.10;99.90;;;;;;4950950;28;20535;-75
2022/09/25 07:00:30;;;;;;;40.83;37.60;;;13.10;99.90;;;;;;4950615;28;20456;-75
2022/09/25 07:05:43;;;;;;;40.80;37.70;;;13.10;99.90;;;;;;4950546;29;20451;-75
2022/09/25 07:08:10;;;;;;;39.67;36.77;;;13.20;99.90;;;;;;4950321;28;20453;-75
2022/09/25 07:10:37;;;;;;;39.93;36.57;;;13.20;99.90;;;;;;4950314;28;20515;-75
2022/09/25 07:13:05;;;;;;;40.53;37.60;;;13.20;99.90;;;;;;4950821;28;20464;-76
2022/09/25 07:15:32;;;;;;;38.23;35.33;;;13.30;99.90;;;;;;4950713;28;20456;-74
2022/09/25 07:17:58;;;;;;;37.10;34.27;;;13.40;99.90;;;;;;4950412;28;20456;-74
2022/09/25 07:20:25;;;;;;;35.50;33.00;;;13.40;99.90;;;;;;4950458;28;20449;-74
2022/09/25 07:22:52;;;;;;;35.77;33.13;;;13.60;99.90;;;;;;4950268;28;20461;-74
2022/09/25 07:25:19;;;;;;;35.27;32.73;;;13.70;99.90;;;;;;4950400;28;20456;-75
2022/09/25 07:27:48;;;;;;;34.27;31.87;;;13.70;99.90;;;;;;4950557;28;21157;-75
2022/09/25 07:30:16;;;;;;;32.70;30.30;;;13.80;99.90;;;;;;4950167;28;20499;-75
2022/09/25 07:32:44;;;;;;;32.23;29.83;;;13.90;99.90;;;;;;4950015;28;20467;-76
2022/09/25 07:35:10;;;;;;;33.30;30.63;;;13.90;99.90;;;;;;4949907;28;20459;-74
2022/09/25 07:37:37;;;;;;;32.50;29.63;;;13.90;99.90;;;;;;4949937;28;20481;-74
2022/09/25 07:40:04;;;;;;;31.60;29.30;;;14.10;99.90;;;;;;4950247;28;21010;-75
2022/09/25 07:42:31;;;;;;;30.57;28.37;;;14.10;99.90;;;;;;4950414;28;20471;-75
2022/09/25 07:44:58;;;;;;;30.63;28.27;;;14.10;99.90;;;;;;4950203;28;20551;-75
2022/09/25 07:47:26;;;;;;;29.83;27.50;;;14.20;99.90;;;;;;4954462;28;20506;-75
2022/09/25 07:49:53;;;;;;;29.53;27.23;;;14.30;99.90;;;;;;4957970;28;21030;-74
2022/09/25 07:52:19;;;;;;;29.70;27.40;;;14.30;99.90;;;;;;4959786;28;20447;-75
2022/09/25 07:54:46;;;;;;;29.23;27.03;;;14.40;99.90;;;;;;4959763;28;20449;-75
2022/09/25 07:57:13;;;;;;;27.83;25.67;;;14.50;99.90;;;;;;4957926;28;20460;-74
2022/09/25 07:59:40;;;;;;;29.60;27.40;;;14.50;99.90;;;;;;4959507;28;20957;-75
2022/09/25 08:02:07;;;;;;;28.83;26.57;;;14.60;99.90;;;;;;4959683;28;20962;-75
2022/09/25 08:04:35;;;;;;;29.47;27.20;;;14.50;99.90;;;;;;4958344;28;20966;-78
2022/09/25 08:07:02;;;;;;;28.27;26.20;;;14.50;99.90;;;;;;4960150;28;20452;-76
2022/09/25 08:09:28;;;;;;;29.93;27.60;;;14.70;99.90;;;;;;4963231;28;20480;-76
2022/09/25 08:11:55;;;;;;;29.73;27.50;;;14.80;99.90;;;;;;4955816;28;20507;-77
2022/09/25 08:14:22;;;;;;;29.80;26.90;;;14.90;99.90;;;;;;4953277;28;20479;-75
2022/09/25 08:16:48;;;;;;;31.07;28.80;;;15.00;99.90;;;;;;4953537;28;20998;-75
2022/09/25 08:19:17;;;;;;;30.10;27.87;;;15.00;99.90;;;;;;4953255;28;20448;-75
2022/09/25 08:21:45;;;;;;;27.37;25.37;;;14.80;99.90;;;;;;4952903;28;20550;-74
2022/09/25 08:24:12;;;;;;;28.13;25.93;;;14.80;99.90;;;;;;4952891;28;20452;-76
2022/09/25 08:26:38;;;;;;;28.20;26.27;;;14.80;99.90;;;;;;4953032;28;21247;-75
2022/09/25 08:29:07;;;;;;;30.13;27.77;;;14.90;99.90;;;;;;4953020;28;20461;-73
2022/09/25 08:31:34;;;;;;;30.57;28.37;;;14.90;99.90;;;;;;4953151;28;21055;-73
2022/09/25 08:34:01;;;;;;;31.13;28.83;;;15.20;99.90;;;;;;4953107;28;20480;-74
2022/09/25 08:36:27;;;;;;;30.17;28.00;;;15.20;99.90;;;;;;4952916;28;20461;-73
2022/09/25 08:38:56;;;;;;;29.93;27.60;;;15.40;99.90;;;;;;4952565;28;20496;-74
2022/09/25 08:41:25;;;;;;;29.53;27.47;;;15.50;99.90;;;;;;4960454;28;20436;-74
2022/09/25 08:44:00;;;;;;;28.67;26.70;;;15.50;99.90;;;;;;4962785;28;20444;-73
2022/09/25 08:49:37;;;;;;;28.30;26.27;;;15.50;99.90;;;;;;4959487;28;20499;-74
2022/09/25 08:52:07;;;;;;;28.17;26.20;;;15.40;99.90;;;;;;4960073;28;20942;-74
2022/09/25 08:54:36;;;;;;;28.10;26.10;;;15.30;99.90;;;;;;4960730;28;20527;-75
2022/09/25 08:57:15;;;;;;;28.20;26.23;;;15.60;99.90;;;;;;4962126;28;20533;-73
2022/09/25 08:59:45;;;;;;;26.50;24.80;;;15.90;99.90;;;;;;4958919;28;20449;-73
2022/09/25 09:02:15;;;;;;;26.03;24.40;;;16.20;99.90;;;;;;4960634;28;20452;-72
2022/09/25 09:04:44;;;;;;;25.90;24.13;;;16.20;99.90;;;;;;4958972;28;20441;-73
2022/09/25 09:07:17;;;;;;;23.93;22.33;;;16.60;99.90;;;;;;4960912;28;20444;-75
2022/09/25 09:09:49;;;;;;;24.60;23.00;;;16.90;99.90;;;;;;4959672;28;20620;-74
2022/09/25 09:12:21;;;;;;;24.00;22.30;;;17.00;99.90;;;;;;4960756;28;20752;-73
2022/09/25 09:14:52;;;;;;;26.40;24.60;;;16.80;99.90;;;;;;4961226;28;20447;-74
2022/09/25 09:17:21;;;;;;;25.27;23.67;;;16.70;99.90;;;;;;4958074;28;20817;-75
2022/09/25 09:19:51;;;;;;;23.50;22.00;;;16.60;99.90;;;;;;4960258;28;20440;-74
2022/09/25 09:22:23;;;;;;;23.70;22.30;;;16.60;99.90;;;;;;4957965;28;20452;-74
2022/09/25 09:25:02;;;;;;;22.97;21.37;;;16.60;99.90;;;;;;4960853;28;20448;-74
2022/09/25 09:27:44;;;;;;;22.60;21.20;;;16.70;99.90;;;;;;4960668;28;20454;-74
2022/09/25 09:30:16;;;;;;;24.03;22.27;;;16.80;99.90;;;;;;4961049;28;21370;-74
2022/09/25 09:33:10;;;;;;;22.77;21.37;;;16.90;99.90;;;;;;4958516;28;20453;-74
2022/09/25 09:35:47;;;;;;;23.13;21.77;;;17.10;99.90;;;;;;4961911;28;20436;-73
2022/09/25 09:38:25;;;;;;;22.70;21.10;;;17.20;99.90;;;;;;4961879;28;20475;-75
2022/09/25 09:41:18;;;;;;;21.50;20.30;;;17.50;99.90;;;;;;4961808;28;20449;-72
2022/09/25 09:44:00;;;;;;;21.37;20.10;;;17.70;99.90;;;;;;4959137;28;20462;-73
2022/09/25 09:46:36;;;;;;;21.77;20.47;;;17.70;99.90;;;;;;4959602;28;20455;-73
2022/09/25 09:49:12;;;;;;;21.03;19.70;;;17.90;99.90;;;;;;4960181;28;20523;-73
2022/09/25 09:51:44;;;;;;;19.53;18.50;;;18.30;99.90;;;;;;4958767;28;20839;-72
2022/09/25 09:54:15;;;;;;;20.87;19.67;;;18.50;99.90;;;;;;4960613;28;20452;-72
2022/09/25 09:56:48;;;;;;;20.07;18.97;;;18.70;99.90;;;;;;4960478;28;20451;-73
2022/09/25 09:59:18;;;;;;;19.23;18.23;;;19.00;99.90;;;;;;4957887;28;20864;-73
2022/09/25 10:01:52;;;;;;;20.40;19.30;;;19.50;99.90;;;;;;4959010;28;20934;-73
2022/09/25 10:04:22;;;;;;;19.27;18.23;;;20.00;99.90;;;;;;4958653;28;20449;-74
2022/09/25 10:06:53;;;;;;;20.23;19.00;;;20.50;99.90;;;;;;4960446;28;20961;-73
2022/09/25 10:09:20;;;;;;;18.30;17.40;;;20.90;99.90;;;;;;4961029;28;20451;-72
2022/09/25 10:11:57;;;;;;;19.13;18.03;;;21.10;99.90;;;;;;4961236;28;20535;-72
2022/09/25 10:14:30;;;;;;;20.10;19.00;;;21.10;99.90;;;;;;4960014;28;20512;-73
2022/09/25 10:16:57;;;;;;;20.70;19.40;;;20.80;99.90;;;;;;4957897;28;20484;-72
2022/09/25 10:19:27;;;;;;;18.70;17.70;;;20.30;99.90;;;;;;4959752;28;20466;-72
2022/09/25 10:22:03;;;;;;;21.17;19.47;;;19.90;99.90;;;;;;4957164;28;20445;-72
2022/09/25 10:24:50;;;;;;;18.70;17.60;;;19.20;99.90;;;;;;4959327;28;20962;-73
2022/09/25 10:27:26;;;;;;;19.00;18.00;;;18.70;99.90;;;;;;4957887;28;20452;-72
2022/09/25 10:30:17;;;;;;;20.80;19.30;;;18.40;99.90;;;;;;4958418;28;20559;-72
2022/09/25 10:32:48;;;;;;;20.07;18.50;;;18.00;99.90;;;;;;4957651;28;20445;-72
2022/09/25 10:35:16;;;;;;;20.37;19.10;;;18.00;99.90;;;;;;4956894;28;20885;-72
2022/09/25 10:37:43;;;;;;;21.90;20.40;;;17.80;99.90;;;;;;4959458;28;20471;-73
2022/09/25 10:40:27;;;;;;;19.40;18.30;;;18.10;99.90;;;;;;4960902;28;20479;-72
2022/09/25 10:43:06;;;;;;;20.27;19.07;;;18.50;99.90;;;;;;4959187;28;20441;-72
2022/09/25 10:45:34;;;;;;;21.50;20.10;;;18.90;99.90;;;;;;4959338;28;20445;-72
2022/09/25 10:51:06;;;;;;;19.20;18.13;;;18.70;99.90;;;;;;4959872;28;20475;-73
2022/09/25 10:53:33;;;;;;;20.47;19.27;;;18.60;99.90;;;;;;4960930;28;20937;-73
2022/09/25 10:56:03;;;;;;;19.43;18.30;;;18.70;99.90;;;;;;4959602;28;20531;-73
2022/09/25 10:58:37;;;;;;;19.93;18.70;;;18.60;99.90;;;;;;4958870;28;20448;-73
2022/09/25 11:01:06;;;;;;;20.63;19.03;;;18.40;99.90;;;;;;4959423;28;20793;-72
2022/09/25 11:03:39;;;;;;;19.73;18.53;;;18.40;99.90;;;;;;4960894;28;20451;-73
2022/09/25 11:06:09;;;;;;;20.20;19.07;;;18.50;99.90;;;;;;4960657;28;20506;-74
2022/09/25 11:08:40;;;;;;;19.93;18.53;;;18.50;99.90;;;;;;4958201;28;20464;-73
2022/09/25 11:11:08;;;;;;;20.00;18.60;;;18.50;99.90;;;;;;4958300;28;20566;-73
2022/09/25 11:13:45;;;;;;;20.17;18.87;;;18.30;99.90;;;;;;4955631;28;20449;-73
2022/09/25 11:16:12;;;;;;;20.53;19.10;;;17.90;99.90;;;;;;4957809;28;20486;-73
2022/09/25 11:18:44;;;;;;;21.37;20.07;;;17.70;99.90;;;;;;4958739;28;20443;-73
2022/09/25 11:21:20;;;;;;;22.50;21.00;;;17.60;99.90;;;;;;4959793;28;20448;-74
2022/09/25 11:24:00;;;;;;;27.87;26.27;;;17.30;99.90;;;;;;4959857;28;20507;-75
2022/09/25 11:26:31;;;;;;;31.53;29.60;;;17.00;99.90;;;;;;4958822;28;20954;-76
2022/09/25 11:29:07;;;;;;;33.70;31.30;;;16.60;99.90;;;;;;4956297;28;20461;-79
2022/09/25 11:31:37;;;;;;;34.87;32.43;;;16.30;99.90;;;;;;4954761;28;20482;-77
2022/09/25 11:34:16;;;;;;;35.30;32.90;;;16.10;99.90;;;;;;4959343;28;20452;-76
2022/09/25 11:36:46;;;;;;;36.40;33.80;;;16.10;99.90;;;;;;4957417;28;20502;-77
2022/09/25 11:42:09;;;;;;;35.60;33.23;;;15.80;99.90;;;;;;4958425;28;20448;-75
2022/09/25 11:44:43;;;;;;;37.73;34.77;;;15.70;99.90;;;;;;4958926;28;20911;-75
2022/09/25 11:47:17;;;;;;;38.60;36.00;;;15.70;99.90;;;;;;4969225;28;20555;-76
2022/09/25 11:49:50;;;;;;;36.87;34.27;;;15.80;99.90;;;;;;4972301;28;20460;-76
2022/09/25 11:52:31;;;;;;;39.20;36.40;;;16.10;99.90;;;;;;4972532;28;20614;-76
2022/09/25 11:55:38;;;;;;;33.27;31.07;;;16.40;99.90;;;;;;4972337;28;20525;-75
2022/09/25 11:58:17;;;;;;;31.00;28.67;;;16.50;99.90;;;;;;4972199;28;20459;-75
2022/09/25 12:00:52;;;;;;;30.40;28.10;;;16.60;99.90;;;;;;4971805;28;20448;-74
2022/09/25 12:03:33;;;;;;;29.43;27.10;;;16.70;99.90;;;;;;4971918;28;20477;-74
2022/09/25 12:06:14;;;;;;;28.83;26.80;;;16.70;99.90;;;;;;4972302;28;20451;-74
2022/09/25 12:08:56;;;;;;;27.30;25.50;;;17.00;99.90;;;;;;4971692;28;20844;-73
2022/09/25 12:11:29;;;;;;;28.23;26.03;;;17.40;99.90;;;;;;4933342;29;20493;-74
2022/09/25 12:14:03;;;;;;;27.27;25.40;;;17.70;99.90;;;;;;4933265;29;21225;-74
2022/09/25 12:16:37;;;;;;;26.37;24.20;;;17.90;99.90;;;;;;4933387;29;20457;-74
2022/09/25 12:19:15;;;;;;;28.33;26.30;;;18.00;99.90;;;;;;4933187;29;20456;-74
2022/09/25 12:21:48;;;;;;;26.50;24.50;;;18.20;99.90;;;;;;4933043;29;20450;-75
2022/09/25 12:24:26;;;;;;;26.00;24.33;;;18.10;99.90;;;;;;4949778;28;20441;-74
2022/09/25 12:27:02;;;;;;;25.40;23.60;;;18.40;99.90;;;;;;4958211;28;20448;-74
2022/09/25 12:29:39;;;;;;;25.10;23.33;;;18.60;99.90;;;;;;4957184;28;20539;-74
2022/09/25 12:32:19;;;;;;;25.20;23.20;;;18.70;99.90;;;;;;4958871;28;20790;-73
2022/09/25 12:34:58;;;;;;;23.33;21.90;;;19.00;99.90;;;;;;4951980;28;20453;-73
2022/09/25 12:37:33;;;;;;;22.70;21.10;;;19.40;99.90;;;;;;4951606;28;20543;-73
2022/09/25 12:40:03;;;;;;;21.80;20.20;;;20.20;99.90;;;;;;4952047;28;21073;-73
2022/09/25 12:42:41;;;;;;;21.20;19.90;;;21.40;99.90;;;;;;4951873;28;20452;-72
2022/09/25 12:45:16;;;;;;;25.50;23.77;;;22.30;99.90;;;;;;4951865;28;20540;-73
2022/09/25 12:47:51;;;;;;;23.50;21.63;;;23.10;99.90;;;;;;4951733;28;20460;-73
2022/09/25 12:50:24;;;;;;;24.47;22.83;;;23.80;98.00;;;;;;4952094;28;20853;-74
2022/09/25 12:52:56;;;;;;;26.10;24.00;;;23.60;97.90;;;;;;4951259;28;20529;-74
2022/09/25 12:55:28;;;;;;;22.33;20.73;;;23.30;98.70;;;;;;4951217;28;20460;-74
2022/09/25 12:58:16;;;;;;;24.43;23.03;;;23.10;99.50;;;;;;4951178;28;20990;-76
2022/09/25 13:00:45;;;;;;;24.23;22.43;;;22.90;99.50;;;;;;4951567;28;20504;-74
2022/09/25 13:03:21;;;;;;;23.63;22.17;;;22.60;99.90;;;;;;4951583;28;20460;-75
2022/09/25 13:05:51;;;;;;;24.30;22.70;;;22.70;99.90;;;;;;4951733;28;20460;-73